createdAt,value
2017-08-18T15:59:43.485Z,19.80
2017-08-18T16:02:11.870Z,19.65
2017-08-18T16:04:41.014Z,19.74
2017-08-18T16:07:09.430Z,19.68
2017-08-18T16:09:37.817Z,19.51
2017-08-18T16:12:06.192Z,19.70
2017-08-18T16:14:34.572Z,19.74
2017-08-18T16:17:02.950Z,19.68
2017-08-18T16:19:31.321Z,19.79
2017-08-18T16:21:59.731Z,19.82
2017-08-18T16:24:28.878Z,19.82
2017-08-18T16:26:57.292Z,19.75
2017-08-18T16:29:25.664Z,19.55
2017-08-18T16:31:54.055Z,19.58
2017-08-18T16:34:22.427Z,19.31
2017-08-18T16:36:50.818Z,19.49
2017-08-18T16:39:19.198Z,19.49
2017-08-18T16:41:47.575Z,19.54
2017-08-18T16:44:15.985Z,19.65
2017-08-18T16:46:45.113Z,19.63
2017-08-18T16:49:13.481Z,19.56
2017-08-18T16:51:41.897Z,19.69
2017-08-18T16:54:10.271Z,19.72
2017-08-18T16:56:38.637Z,19.78
2017-08-18T16:59:07.084Z,19.82
2017-08-18T17:01:35.467Z,19.96
2017-08-18T17:04:03.879Z,19.97
2017-08-18T17:06:32.279Z,20.08
2017-08-18T17:09:00.676Z,20.05
2017-08-18T17:11:29.065Z,20.11
2017-08-18T17:13:57.500Z,19.88
2017-08-18T17:16:25.891Z,19.78
2017-08-18T17:18:54.284Z,19.48
2017-08-18T17:21:22.694Z,19.43
2017-08-18T17:23:51.088Z,19.21
2017-08-18T17:26:19.487Z,19.33
2017-08-18T17:28:47.877Z,19.44
2017-08-18T17:31:16.292Z,19.51
2017-08-18T17:33:44.681Z,19.64
2017-08-18T17:36:13.079Z,19.59
2017-08-18T17:38:41.459Z,19.53
2017-08-18T17:41:09.837Z,19.45
2017-08-18T17:43:38.242Z,19.40
2017-08-18T17:46:06.633Z,19.44
2017-08-18T17:48:35.001Z,19.31
2017-08-18T17:51:03.405Z,19.24
2017-08-18T17:53:32.544Z,19.04
2017-08-18T17:56:00.919Z,18.58
2017-08-18T17:58:30.152Z,18.42
2017-08-18T18:00:58.525Z,17.99
2017-08-18T18:03:26.888Z,17.84
2017-08-18T18:05:55.288Z,17.77
2017-08-18T18:08:23.668Z,17.78
2017-08-18T18:10:52.039Z,17.63
2017-08-18T18:13:20.436Z,17.24
2017-08-18T18:15:48.806Z,17.41
2017-08-18T18:18:17.177Z,17.70
2017-08-18T18:20:45.576Z,17.44
2017-08-18T18:23:13.941Z,17.54
2017-08-18T18:25:42.310Z,17.56
2017-08-18T18:28:10.737Z,17.73
2017-08-18T18:30:39.115Z,17.85
2017-08-18T18:33:07.536Z,18.01
2017-08-18T18:35:35.916Z,18.08
2017-08-18T18:38:04.299Z,18.04
2017-08-18T18:40:32.711Z,18.13
2017-08-18T18:43:01.099Z,18.12
2017-08-18T18:45:29.476Z,18.05
2017-08-18T18:47:57.869Z,17.88
2017-08-18T18:50:26.248Z,18.09
2017-08-18T18:52:54.624Z,18.17
2017-08-18T18:55:23.020Z,18.15
2017-08-18T18:57:51.404Z,18.09
2017-08-18T19:00:19.781Z,17.96
2017-08-18T19:02:48.187Z,17.90
2017-08-18T19:05:16.557Z,17.82
2017-08-18T19:07:44.921Z,17.72
2017-08-18T19:10:13.331Z,17.64
2017-08-18T19:12:41.721Z,17.51
2017-08-18T19:15:10.089Z,17.35
2017-08-18T19:17:38.478Z,17.44
2017-08-18T19:20:06.861Z,17.33
2017-08-18T19:22:35.224Z,17.07
2017-08-18T19:25:03.618Z,17.20
2017-08-18T19:27:31.986Z,17.18
2017-08-18T19:30:00.368Z,17.33
2017-08-18T19:32:29.563Z,17.25
2017-08-18T19:34:57.929Z,17.21
2017-08-18T19:37:26.322Z,17.32
2017-08-18T19:39:54.729Z,17.36
2017-08-18T19:42:23.109Z,17.11
2017-08-18T19:44:51.475Z,17.08
2017-08-18T19:47:20.643Z,17.12
2017-08-18T19:49:49.017Z,17.11
2017-08-18T19:52:17.381Z,17.16
2017-08-18T19:54:45.790Z,17.08
2017-08-18T19:57:14.155Z,17.11
2017-08-18T19:59:42.547Z,17.14
2017-08-18T20:02:10.938Z,17.24
2017-08-18T20:04:39.316Z,17.36
2017-08-18T20:07:07.684Z,17.48
2017-08-18T20:09:36.087Z,17.55
2017-08-18T20:12:04.472Z,17.56
2017-08-18T20:14:32.838Z,17.61
2017-08-18T20:17:01.229Z,17.71
2017-08-18T20:19:29.625Z,17.74
2017-08-18T20:21:58.772Z,17.74
2017-08-18T20:24:27.196Z,17.61
2017-08-18T20:26:55.576Z,17.67
2017-08-18T20:29:23.955Z,17.63
2017-08-18T20:31:52.349Z,17.61
2017-08-18T20:34:21.488Z,17.62
2017-08-18T20:36:49.868Z,17.56
2017-08-18T20:39:18.282Z,17.55
2017-08-18T20:41:46.687Z,17.55
2017-08-18T20:44:15.057Z,17.52
2017-08-18T20:46:43.474Z,17.55
2017-08-18T20:49:11.850Z,17.59
2017-08-18T20:51:40.223Z,17.58
2017-08-18T20:54:08.620Z,17.57
2017-08-18T20:56:36.977Z,17.55
2017-08-18T20:59:06.110Z,17.39
2017-08-18T21:01:34.516Z,17.48
2017-08-18T21:04:02.905Z,17.45
2017-08-18T21:06:31.282Z,17.23
2017-08-18T21:08:59.702Z,17.31
2017-08-18T21:11:28.841Z,17.30
2017-08-18T21:13:57.225Z,17.33
2017-08-18T21:16:25.615Z,17.31
2017-08-18T21:18:53.993Z,17.28
2017-08-18T21:21:22.374Z,17.17
2017-08-18T21:23:50.795Z,17.10
2017-08-18T21:26:19.165Z,17.01
2017-08-18T21:28:47.541Z,16.96
2017-08-18T21:31:15.961Z,16.67
2017-08-18T21:33:44.343Z,16.44
2017-08-18T21:36:12.717Z,16.50
2017-08-18T21:38:41.872Z,16.50
2017-08-18T21:41:11.039Z,16.39
2017-08-18T21:43:41.036Z,16.41
2017-08-18T21:46:09.480Z,16.50
2017-08-18T21:48:37.859Z,16.57
2017-08-18T21:51:06.304Z,16.65
2017-08-18T21:53:35.429Z,16.61
2017-08-18T21:56:03.848Z,16.65
2017-08-18T21:58:32.254Z,16.45
2017-08-18T22:01:00.649Z,16.38
2017-08-18T22:03:29.022Z,16.31
2017-08-18T22:05:57.432Z,16.39
2017-08-18T22:08:25.833Z,16.50
2017-08-18T22:10:54.214Z,16.46
2017-08-18T22:13:22.587Z,16.47
2017-08-18T22:15:50.997Z,16.48
2017-08-18T22:18:19.441Z,16.44
2017-08-18T22:20:47.821Z,16.54
2017-08-18T22:23:16.236Z,16.53
2017-08-18T22:25:44.611Z,16.55
2017-08-18T22:28:13.031Z,16.39
2017-08-18T22:30:41.429Z,16.46
2017-08-18T22:33:09.786Z,16.64
2017-08-18T22:35:38.148Z,16.59
2017-08-18T22:38:06.548Z,16.77
2017-08-18T22:40:34.912Z,16.80
2017-08-18T22:43:03.284Z,16.76
2017-08-18T22:45:31.702Z,16.70
2017-08-18T22:48:00.085Z,16.58
2017-08-18T22:50:28.505Z,16.64
2017-08-18T22:52:56.882Z,16.36
2017-08-18T22:55:25.281Z,16.60
2017-08-18T22:57:53.646Z,16.70
2017-08-18T23:00:22.007Z,16.82
2017-08-18T23:02:50.415Z,16.69
2017-08-18T23:05:18.801Z,16.56
2017-08-18T23:07:47.183Z,16.69
2017-08-18T23:10:15.576Z,16.70
2017-08-18T23:12:43.940Z,16.74
2017-08-18T23:15:12.303Z,16.76
2017-08-18T23:17:40.725Z,16.66
2017-08-18T23:20:09.101Z,16.71
2017-08-18T23:22:37.473Z,16.50
2017-08-18T23:25:05.876Z,16.46
2017-08-18T23:27:34.244Z,16.31
2017-08-18T23:30:02.630Z,16.23
2017-08-18T23:32:30.993Z,16.23
2017-08-18T23:34:59.425Z,16.14
2017-08-18T23:37:27.822Z,16.13
2017-08-18T23:39:56.203Z,16.00
2017-08-18T23:42:24.596Z,15.87
2017-08-18T23:44:53.456Z,15.68
2017-08-18T23:47:21.851Z,15.54
2017-08-18T23:49:50.228Z,15.33
2017-08-18T23:52:18.600Z,15.36
2017-08-18T23:54:47.005Z,15.41
2017-08-18T23:57:15.382Z,15.28
2017-08-18T23:59:43.769Z,15.27
